Time;durP1;ratioP1;P1;durP2;ratioP2;P2;SDS_P1;SDS_P2;PMS_P1;PMS_P2;Temp;Humidity;BMP_temperature;BMP_pressure;BME280_temperature;BME280_humidity;BME280_pressure;Samples;Min_cycle;Max_cycle;Signal;HPM_P1;HPM_P2
2023/03/25 00:00:21;;;;;;;1.93;0.67;;;;;;;8.57;100.00;97562.16;5071414;28;20455;-79
2023/03/25 00:02:49;;;;;;;0.73;0.60;;;;;;;8.53;100.00;97550.97;5071404;28;20553;-80
2023/03/25 00:05:19;;;;;;;0.70;0.70;;;;;;;8.51;100.00;97542.31;5071322;28;20210;-78
2023/03/25 00:07:49;;;;;;;1.10;0.53;;;;;;;8.50;100.00;97535.38;5071182;28;20238;-78
2023/03/25 00:10:16;;;;;;;0.60;0.60;;;;;;;8.46;100.00;97538.34;5070833;28;20674;-79
2023/03/25 00:12:43;;;;;;;2.97;0.60;;;;;;;8.44;100.00;97535.00;5071303;28;20596;-80
2023/03/25 00:15:12;;;;;;;1.03;0.50;;;;;;;8.45;100.00;97531.41;5071233;28;20680;-80
2023/03/25 00:17:39;;;;;;;0.57;0.50;;;;;;;8.46;100.00;97535.72;5071063;28;20222;-79
2023/03/25 00:20:09;;;;;;;2.93;0.90;;;;;;;8.44;100.00;97540.25;5070167;28;20688;-79
2023/03/25 00:22:39;;;;;;;1.13;0.60;;;;;;;8.45;100.00;97537.50;5071274;28;20211;-79
2023/03/25 00:25:07;;;;;;;0.93;0.60;;;;;;;8.43;100.00;97538.53;5071003;28;20215;-79
2023/03/25 00:27:34;;;;;;;1.17;0.60;;;;;;;8.37;100.00;97528.44;5070971;28;20206;-79
2023/03/25 00:30:00;;;;;;;0.87;0.50;;;;;;;8.35;100.00;97536.47;5070547;28;20214;-79
2023/03/25 00:32:28;;;;;;;0.63;0.47;;;;;;;8.37;100.00;97545.09;5070852;28;20226;-79
2023/03/25 00:34:54;;;;;;;0.77;0.50;;;;;;;8.39;100.00;97550.25;5070722;28;20243;-79
2023/03/25 00:37:21;;;;;;;1.20;0.50;;;;;;;8.36;100.00;97538.16;5071051;28;20214;-79
2023/03/25 00:39:49;;;;;;;0.50;0.50;;;;;;;8.33;100.00;97543.59;5070698;28;20214;-79
2023/03/25 00:42:16;;;;;;;1.67;0.50;;;;;;;8.39;100.00;97542.34;5070789;28;20213;-79
2023/03/25 00:44:43;;;;;;;1.13;0.60;;;;;;;8.43;100.00;97538.53;5071005;28;20592;-79
2023/03/25 00:47:16;;;;;;;0.73;0.50;;;;;;;8.43;100.00;97530.66;5070736;28;20212;-79
2023/03/25 00:49:42;;;;;;;1.60;0.50;;;;;;;8.46;100.00;97533.06;5070635;28;20207;-79
2023/03/25 00:52:09;;;;;;;0.87;0.50;;;;;;;8.44;100.00;97529.72;5070559;28;20229;-79
2023/03/25 00:54:36;;;;;;;0.73;0.50;;;;;;;8.41;100.00;97524.66;5070876;28;20223;-80
2023/03/25 00:57:04;;;;;;;1.47;0.50;;;;;;;8.42;100.00;97526.34;5070447;28;20333;-79
2023/03/25 00:59:31;;;;;;;2.47;0.60;;;;;;;8.40;100.00;97512.44;5070411;28;20211;-79
2023/03/25 01:01:57;;;;;;;0.87;0.50;;;;;;;8.35;100.00;97511.91;5070647;28;20220;-80
2023/03/25 01:04:24;;;;;;;1.80;0.60;;;;;;;8.29;100.00;97509.72;5070495;28;20317;-78
2023/03/25 01:06:51;;;;;;;0.50;0.50;;;;;;;8.12;100.00;97512.63;5070604;28;20219;-77
2023/03/25 01:09:19;;;;;;;2.10;0.60;;;;;;;7.98;100.00;97510.97;5070533;28;20217;-80
2023/03/25 01:11:47;;;;;;;1.67;0.80;;;;;;;7.89;100.00;97516.84;5070538;28;20293;-79
2023/03/25 01:14:18;;;;;;;1.27;0.50;;;;;;;7.81;100.00;97519.16;5070717;28;20238;-80
2023/03/25 01:16:45;;;;;;;1.00;0.67;;;;;;;7.72;100.00;97517.16;5070736;28;20214;-79
2023/03/25 01:19:12;;;;;;;1.20;0.60;;;;;;;7.73;100.00;97523.25;5070144;28;20207;-78
2023/03/25 01:21:39;;;;;;;1.30;0.60;;;;;;;7.68;100.00;97522.72;5070650;28;20672;-78
2023/03/25 01:24:08;;;;;;;0.77;0.77;;;;;;;7.69;100.00;97521.78;5070625;28;20234;-78
2023/03/25 01:26:34;;;;;;;2.07;0.90;;;;;;;7.65;100.00;97521.13;5070323;28;20648;-78
2023/03/25 01:29:01;;;;;;;1.87;0.70;;;;;;;7.67;100.00;97513.16;5070493;28;20216;-78
2023/03/25 01:31:29;;;;;;;1.90;0.60;;;;;;;7.63;100.00;97503.78;5072906;28;20227;-78
2023/03/25 01:33:56;;;;;;;1.10;0.70;;;;;;;7.62;100.00;97510.00;5073855;28;20285;-78
2023/03/25 01:36:23;;;;;;;0.60;0.60;;;;;;;7.60;100.00;97504.00;5073968;28;20650;-78
2023/03/25 01:38:50;;;;;;;1.53;0.70;;;;;;;7.55;100.00;97493.81;5074003;28;20215;-78
2023/03/25 01:41:17;;;;;;;2.27;0.80;;;;;;;7.55;100.00;97496.44;5073741;28;20609;-78
2023/03/25 01:44:03;;;;;;;2.60;0.83;;;;;;;7.60;100.00;97501.38;5074058;28;20318;-78
2023/03/25 01:46:31;;;;;;;1.50;0.70;;;;;;;7.68;100.00;97501.69;5073877;28;20219;-78
2023/03/25 01:49:01;;;;;;;1.23;0.70;;;;;;;7.78;100.00;97493.06;5073903;28;20224;-78
2023/03/25 01:51:32;;;;;;;2.63;0.70;;;;;;;7.82;100.00;97504.22;5073695;28;20590;-78
2023/03/25 01:53:58;;;;;;;1.63;0.80;;;;;;;7.83;100.00;97498.03;5073758;28;20232;-78
2023/03/25 01:56:30;;;;;;;2.53;0.83;;;;;;;7.91;100.00;97487.81;5073977;28;20220;-78
2023/03/25 01:58:58;;;;;;;1.97;0.80;;;;;;;7.95;100.00;97495.38;5073356;28;20215;-78
2023/03/25 02:01:25;;;;;;;3.30;0.80;;;;;;;7.96;100.00;97490.97;5073462;28;20210;-78
2023/03/25 02:04:01;;;;;;;4.60;0.90;;;;;;;7.93;100.00;97475.38;5073340;28;20234;-77
2023/03/25 02:06:33;;;;;;;1.93;0.73;;;;;;;7.84;100.00;97471.59;5073609;28;20679;-78
2023/03/25 02:09:04;;;;;;;2.30;0.83;;;;;;;7.79;100.00;97483.41;5073408;28;20211;-76
2023/03/25 02:11:30;;;;;;;1.90;0.80;;;;;;;7.76;100.00;97478.31;5073264;28;20628;-78
2023/03/25 02:14:00;;;;;;;2.50;0.80;;;;;;;7.70;100.00;97466.44;5073266;28;20725;-78
2023/03/25 02:16:32;;;;;;;2.03;0.80;;;;;;;7.68;100.00;97462.25;5073382;28;20213;-78
2023/03/25 02:19:31;;;;;;;3.20;0.83;;;;;;;7.66;100.00;97475.47;5073229;28;20221;-78
2023/03/25 02:22:36;;;;;;;1.57;0.67;;;;;;;7.71;100.00;97476.00;5053204;28;20235;-78
2023/03/25 02:25:38;;;;;;;3.27;0.80;;;;;;;7.81;100.00;97478.84;5073076;28;20224;-78
2023/03/25 02:28:12;;;;;;;2.30;0.70;;;;;;;7.94;100.00;97482.31;5073368;28;20214;-78
2023/03/25 02:30:53;;;;;;;3.40;0.70;;;;;;;8.03;100.00;97482.53;5072804;28;20214;-78
2023/03/25 02:33:41;;;;;;;1.30;1.20;;;;;;;8.10;100.00;97482.97;5073025;28;20230;-78
2023/03/25 02:36:37;;;;;;;2.20;0.70;;;;;;;8.16;100.00;97483.38;5072752;28;20558;-78
2023/03/25 02:39:13;;;;;;;1.40;0.70;;;;;;;8.20;100.00;97505.09;5036932;28;20213;-78
2023/03/25 02:41:43;;;;;;;2.63;0.80;;;;;;;8.17;100.00;97524.56;5072147;28;20250;-78
2023/03/25 02:44:15;;;;;;;2.70;0.60;;;;;;;7.98;100.00;97586.44;5072941;28;20227;-78
2023/03/25 02:46:48;;;;;;;3.03;0.80;;;;;;;7.46;100.00;97585.56;5072688;28;20225;-78
2023/03/25 02:49:19;;;;;;;2.27;0.80;;;;;;;7.08;100.00;97584.56;5072464;28;20215;-78
2023/03/25 02:51:51;;;;;;;2.80;0.50;;;;;;;6.86;100.00;97578.16;5072801;28;20220;-80
2023/03/25 02:54:21;;;;;;;1.03;0.40;;;;;;;6.73;100.00;97572.81;5072564;28;20322;-78
2023/03/25 02:56:56;;;;;;;1.10;0.63;;;;;;;6.63;100.00;97557.75;5072642;28;20277;-79
2023/03/25 02:59:23;;;;;;;1.73;0.50;;;;;;;6.58;100.00;97544.91;5072266;28;20670;-78
2023/03/25 03:01:50;;;;;;;2.47;0.87;;;;;;;6.54;100.00;97530.28;5072631;28;20212;-79
2023/03/25 03:04:16;;;;;;;0.50;0.50;;;;;;;6.45;100.00;97515.13;5072457;28;20230;-78
2023/03/25 03:06:43;;;;;;;1.43;0.73;;;;;;;6.44;100.00;97523.09;5072312;28;20210;-78
2023/03/25 03:09:24;;;;;;;4.47;0.60;;;;;;;6.39;100.00;97528.63;5072200;28;20295;-78
2023/03/25 03:12:06;;;;;;;1.27;0.30;;;;;;;6.32;100.00;97502.84;5072195;28;20589;-78
2023/03/25 03:14:43;;;;;;;0.40;0.30;;;;;;;6.24;100.00;97524.31;5072283;28;20227;-78
2023/03/25 03:17:17;;;;;;;1.17;0.30;;;;;;;6.23;100.00;97503.44;5072284;28;20203;-78
2023/03/25 03:19:49;;;;;;;4.63;0.50;;;;;;;6.19;100.00;97492.28;5072413;28;20641;-78
2023/03/25 03:22:35;;;;;;;1.13;0.63;;;;;;;6.17;100.00;97509.06;5072366;28;20261;-78
2023/03/25 03:25:11;;;;;;;0.70;0.43;;;;;;;6.13;100.00;97505.78;5072139;28;20582;-78
2023/03/25 03:27:43;;;;;;;0.40;0.40;;;;;;;6.10;100.00;97503.34;5072401;28;20207;-78
2023/03/25 03:30:17;;;;;;;1.63;0.60;;;;;;;6.07;100.00;97513.16;5071530;28;20217;-78
2023/03/25 03:32:52;;;;;;;1.43;0.40;;;;;;;6.06;100.00;97528.09;5071949;28;20231;-78
2023/03/25 03:35:22;;;;;;;0.40;0.40;;;;;;;6.03;100.00;97519.53;5071907;28;20650;-78
2023/03/25 03:37:55;;;;;;;1.13;0.60;;;;;;;5.98;100.00;97522.44;5071916;28;20218;-78
2023/03/25 03:40:25;;;;;;;1.00;0.57;;;;;;;6.05;100.00;97521.13;5071603;28;20204;-78
2023/03/25 03:42:56;;;;;;;1.53;0.60;;;;;;;5.99;100.00;97525.91;5071543;28;20216;-78
2023/03/25 03:45:29;;;;;;;1.00;0.77;;;;;;;6.04;100.00;97536.97;5071909;28;20573;-78
2023/03/25 03:48:00;;;;;;;0.33;0.33;;;;;;;6.00;100.00;97538.94;5071941;28;20360;-79
2023/03/25 03:50:31;;;;;;;0.50;0.50;;;;;;;6.04;100.00;97545.69;5071349;28;20226;-79
2023/03/25 03:53:04;;;;;;;2.07;0.90;;;;;;;6.16;100.00;97544.94;5071420;28;20616;-79
2023/03/25 03:55:37;;;;;;;1.50;0.70;;;;;;;6.26;100.00;97556.56;5071421;28;20219;-78
2023/03/25 03:58:09;;;;;;;0.53;0.50;;;;;;;6.24;100.00;97557.59;5071652;28;20222;-78
2023/03/25 04:00:42;;;;;;;0.90;0.60;;;;;;;6.27;100.00;97558.25;5071121;28;20210;-78
2023/03/25 04:03:14;;;;;;;2.03;0.60;;;;;;;6.29;100.00;97564.22;5071404;28;20263;-78
2023/03/25 04:05:47;;;;;;;0.63;0.60;;;;;;;6.31;100.00;97549.25;5071455;28;20206;-80
2023/03/25 04:08:22;;;;;;;2.67;0.60;;;;;;;6.34;100.00;97556.94;5071245;28;20557;-77
2023/03/25 04:10:57;;;;;;;1.43;0.60;;;;;;;6.37;100.00;97553.28;5071106;28;20638;-78
2023/03/25 04:13:26;;;;;;;1.40;0.60;;;;;;;6.37;100.00;97558.53;5071272;28;20323;-77
2023/03/25 04:15:52;;;;;;;1.27;0.60;;;;;;;6.37;100.00;97559.38;5071080;28;20213;-79
2023/03/25 04:18:22;;;;;;;1.33;0.57;;;;;;;6.42;100.00;97556.47;5071126;28;20585;-78
2023/03/25 04:20:49;;;;;;;2.07;0.60;;;;;;;6.53;100.00;97567.16;5071044;28;20209;-79
2023/03/25 04:23:17;;;;;;;1.10;0.60;;;;;;;6.56;100.00;97561.69;5071079;28;20233;-79
2023/03/25 04:25:46;;;;;;;1.27;0.60;;;;;;;6.62;100.00;97558.69;5070804;28;20674;-79
2023/03/25 04:28:16;;;;;;;1.10;0.60;;;;;;;6.62;100.00;97556.06;5070871;28;20224;-79
2023/03/25 04:30:44;;;;;;;0.63;0.60;;;;;;;6.62;100.00;97554.28;5070583;28;20229;-79
2023/03/25 04:33:10;;;;;;;1.53;0.63;;;;;;;6.52;100.00;97558.41;5070626;28;20324;-79
2023/03/25 04:35:37;;;;;;;0.67;0.67;;;;;;;6.43;100.00;97560.78;5071030;28;20230;-79
2023/03/25 04:38:04;;;;;;;1.27;0.80;;;;;;;6.32;100.00;97561.44;5070941;28;20236;-79
2023/03/25 04:40:31;;;;;;;1.50;0.60;;;;;;;6.24;100.00;97558.41;5070597;28;20215;-78
2023/03/25 04:42:58;;;;;;;1.27;0.60;;;;;;;6.16;100.00;97558.06;5070864;28;20628;-79
2023/03/25 04:45:27;;;;;;;0.70;0.50;;;;;;;6.06;100.00;97558.72;5070682;28;20216;-79
2023/03/25 04:47:54;;;;;;;1.23;0.60;;;;;;;5.98;100.00;97561.78;5070848;28;20267;-78
2023/03/25 04:50:23;;;;;;;1.63;0.57;;;;;;;5.97;100.00;97557.47;5070522;28;20207;-78
2023/03/25 04:52:50;;;;;;;0.63;0.63;;;;;;;5.89;100.00;97561.50;5070407;28;20761;-78
2023/03/25 04:55:18;;;;;;;1.83;0.50;;;;;;;5.85;100.00;97565.22;5070674;28;20199;-78
2023/03/25 04:57:46;;;;;;;0.40;0.40;;;;;;;5.82;100.00;97563.66;5070506;28;20694;-78
2023/03/25 05:00:13;;;;;;;2.87;0.53;;;;;;;5.82;100.00;97561.03;5070186;28;20218;-78
2023/03/25 05:02:45;;;;;;;0.93;0.70;;;;;;;5.80;100.00;97567.28;5070615;28;20247;-79
2023/03/25 05:05:17;;;;;;;0.50;0.50;;;;;;;5.76;100.00;97571.00;5071712;28;20211;-78
2023/03/25 05:07:45;;;;;;;1.07;0.50;;;;;;;5.72;100.00;97570.31;5074718;28;20652;-78
2023/03/25 05:10:12;;;;;;;1.63;0.57;;;;;;;5.70;100.00;97569.59;5074180;28;20712;-78
2023/03/25 05:12:39;;;;;;;0.50;0.50;;;;;;;5.70;100.00;97576.59;5074302;28;20287;-79
2023/03/25 05:15:07;;;;;;;1.07;0.77;;;;;;;5.76;100.00;97581.47;5074507;28;20211;-79
2023/03/25 05:17:33;;;;;;;1.10;0.60;;;;;;;5.89;100.00;97580.69;5074720;28;20209;-78
2023/03/25 05:20:01;;;;;;;3.43;0.63;;;;;;;5.98;100.00;97582.75;5074158;28;20219;-79
2023/03/25 05:22:27;;;;;;;2.63;0.80;;;;;;;6.13;100.00;97586.25;5074492;28;20580;-79
2023/03/25 05:24:55;;;;;;;2.13;0.80;;;;;;;6.18;100.00;97579.78;5074052;28;20723;-79
2023/03/25 05:27:21;;;;;;;1.13;0.70;;;;;;;6.23;100.00;97596.09;5074244;28;20212;-79
2023/03/25 05:29:48;;;;;;;0.90;0.60;;;;;;;6.28;100.00;97582.72;5073839;28;20654;-78
2023/03/25 05:32:16;;;;;;;1.87;0.80;;;;;;;6.36;100.00;97594.41;5074205;28;20577;-79
2023/03/25 05:34:45;;;;;;;1.23;0.80;;;;;;;6.36;100.00;97598.84;5076330;22;20251;-77
2023/03/25 05:37:13;;;;;;;1.17;0.80;;;;;;;6.37;100.00;97576.91;5054510;28;20206;-77
2023/03/25 05:39:39;;;;;;;2.23;0.60;;;;;;;6.38;100.00;97578.56;5054427;28;20344;-77
2023/03/25 05:42:06;;;;;;;2.57;0.80;;;;;;;6.39;100.00;97578.50;5054215;28;20212;-77
2023/03/25 05:44:33;;;;;;;1.83;0.70;;;;;;;6.36;100.00;97583.91;5054376;28;20669;-78
2023/03/25 05:47:00;;;;;;;2.37;1.57;;;;;;;6.47;100.00;97586.72;5054309;28;20209;-77
2023/03/25 05:49:27;;;;;;;1.30;0.70;;;;;;;6.52;100.00;97579.41;5053650;28;20670;-77
2023/03/25 05:51:54;;;;;;;1.17;0.80;;;;;;;6.63;100.00;97587.47;5054054;28;20221;-77
2023/03/25 05:54:24;;;;;;;2.07;0.90;;;;;;;6.71;100.00;97579.97;5053970;28;20239;-77
2023/03/25 05:56:50;;;;;;;3.37;1.10;;;;;;;6.80;100.00;97579.41;5053909;28;20242;-77
2023/03/25 05:59:19;;;;;;;1.43;0.67;;;;;;;6.90;100.00;97577.84;5053677;28;20209;-76
2023/03/25 06:01:46;;;;;;;3.23;1.03;;;;;;;7.04;100.00;97583.09;5053913;28;20295;-78
2023/03/25 06:04:15;;;;;;;2.20;0.90;;;;;;;7.11;100.00;97576.50;5053743;28;20220;-77
2023/03/25 06:06:41;;;;;;;4.73;0.90;;;;;;;7.17;100.00;97588.41;5053702;28;20263;-77
2023/03/25 06:09:09;;;;;;;1.27;0.70;;;;;;;7.22;100.00;97581.94;5053344;28;20675;-78
2023/03/25 06:11:37;;;;;;;4.30;1.07;;;;;;;7.22;100.00;97588.00;5053721;28;20208;-76
2023/03/25 06:14:05;;;;;;;2.87;1.00;;;;;;;7.29;100.00;97588.47;5053526;28;20694;-77
2023/03/25 06:16:32;;;;;;;2.50;0.80;;;;;;;7.23;100.00;97591.50;5052380;28;20305;-78
2023/03/25 06:19:00;;;;;;;2.57;0.83;;;;;;;7.22;100.00;97613.47;5053324;28;20295;-78
2023/03/25 06:21:27;;;;;;;1.77;0.87;;;;;;;7.29;100.00;97606.88;5053829;28;20675;-77
2023/03/25 06:23:54;;;;;;;3.80;0.90;;;;;;;7.45;100.00;97605.78;5054306;28;20244;-78
2023/03/25 06:26:22;;;;;;;1.93;0.83;;;;;;;7.56;100.00;97607.69;5057035;28;20212;-78
2023/03/25 06:28:50;;;;;;;2.40;1.00;;;;;;;7.68;100.00;97612.16;5057314;28;20235;-77
2023/03/25 06:31:19;;;;;;;3.80;1.70;;;;;;;7.74;100.00;97607.34;5055812;28;20306;-77
2023/03/25 06:33:46;;;;;;;5.17;1.10;;;;;;;7.82;100.00;97614.69;5052864;28;20699;-76
2023/03/25 06:36:17;;;;;;;3.33;0.90;;;;;;;7.80;100.00;97601.66;5053386;28;20209;-79
2023/03/25 06:38:44;;;;;;;4.10;0.80;;;;;;;7.75;100.00;97602.91;5053515;28;20213;-76
2023/03/25 06:41:12;;;;;;;4.00;1.13;;;;;;;7.65;100.00;97609.72;5053166;28;20209;-75
2023/03/25 06:43:39;;;;;;;2.33;1.00;;;;;;;7.68;100.00;97607.75;5053045;28;20257;-76
2023/03/25 06:46:08;;;;;;;3.17;0.90;;;;;;;7.78;100.00;97615.88;5053232;28;20212;-77
2023/03/25 06:48:34;;;;;;;2.77;1.10;;;;;;;7.90;100.00;97615.88;5053251;28;20206;-76
2023/03/25 06:51:01;;;;;;;4.60;0.90;;;;;;;8.13;100.00;97624.84;5052954;28;20210;-75
2023/03/25 06:53:27;;;;;;;2.17;0.87;;;;;;;8.37;100.00;97617.97;5052888;28;20239;-76
2023/03/25 06:55:56;;;;;;;4.33;0.80;;;;;;;8.53;100.00;97608.06;5052723;28;20230;-76
2023/03/25 06:58:23;;;;;;;2.87;1.00;;;;;;;8.44;100.00;97614.81;5052297;28;20219;-75
2023/03/25 07:00:53;;;;;;;1.87;1.00;;;;;;;8.40;100.00;97613.31;5052338;28;20700;-77
2023/03/25 07:03:21;;;;;;;3.47;0.80;;;;;;;8.39;100.00;97611.63;5052878;28;20208;-77
2023/03/25 07:05:47;;;;;;;5.07;0.90;;;;;;;8.43;100.00;97612.28;5052878;28;20215;-75
2023/03/25 07:08:14;;;;;;;3.23;0.83;;;;;;;8.45;100.00;97613.03;5052733;28;20571;-75
2023/03/25 07:10:41;;;;;;;4.13;0.90;;;;;;;8.48;100.00;97604.91;5052457;28;20238;-76
2023/03/25 07:13:08;;;;;;;2.73;0.80;;;;;;;8.57;100.00;97609.56;5052455;28;20700;-77
2023/03/25 07:15:35;;;;;;;2.60;0.70;;;;;;;8.69;100.00;97603.44;5052602;28;20225;-77
2023/03/25 07:18:01;;;;;;;3.53;1.00;;;;;;;9.05;100.00;97611.38;5052685;28;20570;-77
2023/03/25 07:20:29;;;;;;;1.83;0.90;;;;;;;9.43;100.00;97598.91;5052348;28;20215;-77
2023/03/25 07:22:56;;;;;;;2.07;0.70;;;;;;;9.56;96.15;97592.63;5052493;28;20209;-77
2023/03/25 07:25:22;;;;;;;1.60;0.63;;;;;;;9.70;94.20;97586.31;5052121;28;20257;-78
2023/03/25 07:27:49;;;;;;;1.00;0.70;;;;;;;9.63;93.06;97587.72;5051845;28;20208;-76
2023/03/25 07:30:16;;;;;;;1.20;0.63;;;;;;;9.62;93.78;97586.88;5052012;28;20327;-76
2023/03/25 07:32:45;;;;;;;3.03;0.80;;;;;;;9.67;92.65;97591.81;5052344;28;20206;-76
2023/03/25 07:35:12;;;;;;;1.30;0.70;;;;;;;9.67;91.46;97583.91;5052196;28;20368;-76
2023/03/25 07:37:40;;;;;;;2.50;0.83;;;;;;;9.64;91.70;97592.03;5052060;28;20661;-75
2023/03/25 07:40:08;;;;;;;1.63;0.73;;;;;;;9.61;90.16;97585.19;5051774;28;20212;-76
2023/03/25 07:42:36;;;;;;;1.43;0.57;;;;;;;9.76;90.18;97588.50;5052049;28;20265;-76
2023/03/25 07:45:02;;;;;;;1.17;0.60;;;;;;;9.84;89.77;97594.88;5052150;28;20314;-77
2023/03/25 07:47:29;;;;;;;1.63;0.57;;;;;;;10.08;91.82;97605.41;5052015;28;20226;-76
2023/03/25 07:49:55;;;;;;;2.60;0.70;;;;;;;10.16;89.83;97593.31;5051633;28;20213;-75
2023/03/25 07:52:22;;;;;;;1.43;0.90;;;;;;;10.16;89.73;97603.88;5052047;28;20211;-77
2023/03/25 07:54:49;;;;;;;3.07;0.80;;;;;;;10.34;90.11;97596.38;5051614;28;20231;-78
2023/03/25 07:57:16;;;;;;;0.70;0.67;;;;;;;10.51;90.56;97594.13;5050981;28;20209;-77
2023/03/25 07:59:42;;;;;;;1.93;0.60;;;;;;;10.76;87.94;97587.78;5051564;28;20218;-76
2023/03/25 08:02:10;;;;;;;1.70;0.60;;;;;;;10.90;87.92;97582.22;5051747;28;20287;-77
2023/03/25 08:04:36;;;;;;;1.73;0.80;;;;;;;11.04;86.83;97581.97;5051685;28;20239;-77
2023/03/25 08:07:03;;;;;;;1.13;0.80;;;;;;;11.20;86.96;97582.44;5051463;28;20703;-76
2023/03/25 08:09:29;;;;;;;1.77;0.70;;;;;;;11.36;85.41;97577.56;5051032;28;20566;-76
2023/03/25 08:11:57;;;;;;;1.93;0.70;;;;;;;11.52;84.36;97572.72;5051675;28;20216;-76
2023/03/25 08:14:23;;;;;;;1.50;0.67;;;;;;;11.71;83.35;97567.63;5051536;28;20566;-76
2023/03/25 08:16:50;;;;;;;1.13;0.70;;;;;;;11.69;81.43;97553.69;5051516;28;20217;-78
2023/03/25 08:19:17;;;;;;;2.23;0.90;;;;;;;11.54;79.64;97560.19;5056725;28;20558;-76
2023/03/25 08:21:43;;;;;;;2.83;0.80;;;;;;;11.26;79.26;97556.31;5071470;28;20233;-79
2023/03/25 08:24:10;;;;;;;1.77;0.60;;;;;;;11.12;79.02;97558.41;5071131;28;20227;-75
2023/03/25 08:26:37;;;;;;;1.63;0.50;;;;;;;11.07;81.03;97568.53;5070248;28;20207;-77
2023/03/25 08:29:06;;;;;;;2.00;0.87;;;;;;;11.24;82.42;97573.28;5069646;28;20243;-77
2023/03/25 08:31:34;;;;;;;1.73;0.60;;;;;;;11.24;79.53;97567.97;5070552;28;20211;-75
2023/03/25 08:34:01;;;;;;;0.90;0.50;;;;;;;11.39;78.13;97553.53;5070380;28;20715;-75
2023/03/25 08:36:28;;;;;;;0.53;0.50;;;;;;;11.27;79.04;97563.31;5071170;28;20239;-77
2023/03/25 08:38:55;;;;;;;2.20;0.60;;;;;;;11.35;78.78;97554.72;5071221;28;20214;-75
2023/03/25 08:41:22;;;;;;;1.70;0.47;;;;;;;11.35;79.92;97557.38;5070514;28;20220;-75
2023/03/25 08:43:49;;;;;;;0.60;0.50;;;;;;;11.31;77.08;97542.75;5071101;28;20585;-77
2023/03/25 08:46:16;;;;;;;1.07;0.60;;;;;;;11.36;77.46;97546.69;5071136;28;20214;-76
2023/03/25 08:48:43;;;;;;;2.40;0.70;;;;;;;11.22;80.56;97559.34;5071188;28;20203;-76
2023/03/25 08:51:10;;;;;;;1.53;0.80;;;;;;;11.06;80.78;97564.19;5070547;28;20276;-76
2023/03/25 08:53:36;;;;;;;0.40;0.40;;;;;;;10.81;84.76;97591.72;5071316;28;20221;-77
2023/03/25 08:56:03;;;;;;;0.97;0.37;;;;;;;10.54;86.26;97596.53;5071101;28;20208;-76
2023/03/25 08:58:33;;;;;;;1.33;0.40;;;;;;;10.37;87.97;97596.13;5071221;28;20230;-76
2023/03/25 09:00:59;;;;;;;1.13;0.50;;;;;;;10.31;87.53;97586.03;5070587;28;20208;-75
2023/03/25 09:03:27;;;;;;;0.63;0.40;;;;;;;10.21;87.74;97593.81;5071003;28;20228;-75
2023/03/25 09:05:54;;;;;;;0.87;0.60;;;;;;;10.20;90.10;97607.13;5070932;28;20209;-74
2023/03/25 09:08:21;;;;;;;0.97;0.50;;;;;;;10.25;91.57;97619.06;5070929;28;20309;-76
2023/03/25 09:10:48;;;;;;;1.30;0.30;;;;;;;10.16;91.13;97618.91;5070766;28;20221;-76
2023/03/25 09:13:14;;;;;;;1.33;0.70;;;;;;;9.98;92.71;97621.06;5071002;28;20210;-75
2023/03/25 09:15:41;;;;;;;1.10;0.40;;;;;;;9.90;95.61;97615.53;5070765;28;20229;-75
2023/03/25 09:18:09;;;;;;;1.43;0.40;;;;;;;9.88;100.00;97621.88;5070907;28;20213;-76
2023/03/25 09:20:36;;;;;;;0.70;0.33;;;;;;;9.84;99.22;97607.25;5071018;28;20212;-76
2023/03/25 09:23:03;;;;;;;0.30;0.30;;;;;;;9.88;98.71;97613.97;5071214;28;20217;-76
2023/03/25 09:25:30;;;;;;;0.40;0.40;;;;;;;9.99;99.02;97617.50;5070792;28;20200;-76
2023/03/25 09:27:56;;;;;;;0.30;0.30;;;;;;;10.07;96.67;97603.75;5071063;28;20214;-76
2023/03/25 09:30:23;;;;;;;1.37;0.40;;;;;;;10.22;96.62;97613.97;5070449;28;20665;-75
2023/03/25 09:32:49;;;;;;;0.30;0.30;;;;;;;10.36;96.01;97611.16;5070723;28;20213;-76
2023/03/25 09:35:16;;;;;;;0.40;0.40;;;;;;;10.49;94.96;97605.75;5070403;28;20237;-75
2023/03/25 09:37:44;;;;;;;0.70;0.40;;;;;;;10.71;94.69;97611.06;5071008;28;20588;-75
2023/03/25 09:40:13;;;;;;;1.03;0.80;;;;;;;10.91;95.41;97599.78;5070565;28;20207;-74
2023/03/25 09:42:53;;;;;;;0.30;0.30;;;;;;;11.02;93.80;97594.47;5070795;28;20203;-76
2023/03/25 09:45:30;;;;;;;0.30;0.30;;;;;;;11.30;93.95;97593.94;5070677;28;20230;-75
2023/03/25 09:48:02;;;;;;;1.00;0.37;;;;;;;11.40;91.26;97589.59;5060876;28;20688;-75
2023/03/25 09:50:31;;;;;;;0.30;0.30;;;;;;;11.63;90.80;97585.97;5042281;28;20229;-76
2023/03/25 09:53:04;;;;;;;1.30;0.40;;;;;;;11.70;88.21;97581.84;5051747;28;20226;-76
2023/03/25 09:55:36;;;;;;;1.07;0.30;;;;;;;11.74;89.84;97585.94;5054253;28;20242;-77
2023/03/25 09:58:23;;;;;;;0.77;0.50;;;;;;;11.62;87.92;97584.28;5052322;28;20551;-77
2023/03/25 10:00:53;;;;;;;0.30;0.30;;;;;;;11.67;89.30;97593.50;5051691;28;20208;-76
2023/03/25 10:03:27;;;;;;;0.63;0.30;;;;;;;11.66;89.42;97577.75;5049062;28;20299;-77
2023/03/25 10:06:13;;;;;;;1.10;1.00;;;;;;;11.45;89.79;97584.78;5049561;28;20713;-77
2023/03/25 10:08:53;;;;;;;0.90;0.50;;;;;;;11.43;91.11;97584.06;5050438;28;20215;-75
2023/03/25 10:11:29;;;;;;;1.67;0.50;;;;;;;11.72;89.85;97585.19;5051438;28;20218;-76
2023/03/25 10:14:03;;;;;;;1.30;0.60;;;;;;;12.18;91.32;97572.47;5051621;28;20244;-75
2023/03/25 10:16:39;;;;;;;0.73;0.40;;;;;;;12.46;88.33;97556.72;5051525;28;20322;-77
2023/03/25 10:19:23;;;;;;;0.63;0.40;;;;;;;12.60;84.92;97552.91;5048255;28;20211;-76
2023/03/25 10:21:56;;;;;;;0.50;0.50;;;;;;;12.47;84.07;97553.09;5050058;28;20204;-76
2023/03/25 10:24:28;;;;;;;2.43;0.70;;;;;;;12.59;83.36;97545.94;5051001;28;20230;-76
2023/03/25 10:27:01;;;;;;;0.57;0.57;;;;;;;12.51;80.15;97540.44;5047816;28;20203;-77
2023/03/25 10:29:34;;;;;;;0.50;0.50;;;;;;;12.34;79.40;97531.28;5049180;28;20207;-77
2023/03/25 10:32:06;;;;;;;1.60;0.40;;;;;;;12.39;80.42;97528.22;5050446;28;20207;-77
2023/03/25 10:34:38;;;;;;;0.93;0.50;;;;;;;12.30;77.51;97513.13;5051076;28;20286;-78
2023/03/25 10:37:11;;;;;;;0.33;0.30;;;;;;;12.37;79.47;97525.75;5051405;28;20212;-78
2023/03/25 10:39:44;;;;;;;0.40;0.40;;;;;;;12.16;80.03;97538.16;5050746;28;20208;-76
2023/03/25 10:42:24;;;;;;;0.53;0.40;;;;;;;12.16;79.33;97526.72;5050704;28;20227;-77
2023/03/25 10:44:52;;;;;;;0.47;0.40;;;;;;;11.71;77.64;97519.97;5047738;28;20800;-78
2023/03/25 10:47:22;;;;;;;2.00;0.47;;;;;;;11.59;81.88;97547.47;5051122;28;20207;-77
2023/03/25 10:49:51;;;;;;;0.70;0.53;;;;;;;11.33;84.35;97546.09;5042512;28;20215;-80
2023/03/25 10:52:18;;;;;;;1.90;0.50;;;;;;;11.30;82.77;97535.75;5033886;28;20282;-78
2023/03/25 10:54:51;;;;;;;1.43;0.50;;;;;;;11.27;83.68;97546.59;5029672;28;20318;-79
2023/03/25 10:57:22;;;;;;;1.42;0.60;;;;;;;11.38;88.25;97555.31;5045433;28;20443;-77
2023/03/25 10:59:58;;;;;;;1.00;0.60;;;;;;;11.60;84.31;97538.56;5050667;28;20222;-78
2023/03/25 11:02:28;;;;;;;0.90;0.60;;;;;;;11.86;82.94;97537.25;5046432;28;20200;-80
2023/03/25 11:04:58;;;;;;;0.93;0.50;;;;;;;12.10;80.25;97516.66;5046431;28;20243;-77
2023/03/25 11:07:29;;;;;;;1.70;0.43;;;;;;;12.32;79.50;97516.47;5045835;28;20211;-77
2023/03/25 11:10:09;;;;;;;2.07;0.50;;;;;;;12.53;77.00;97509.34;5052510;28;20212;-79
2023/03/25 11:12:36;;;;;;;0.53;0.30;;;;;;;12.90;77.70;97513.13;5053245;28;20215;-83
2023/03/25 11:15:02;;;;;;;0.63;0.40;;;;;;;12.98;75.08;97506.19;5052705;28;20238;-81
2023/03/25 11:17:29;;;;;;;0.67;0.60;;;;;;;13.05;76.18;97514.44;5052879;28;20204;-78
2023/03/25 11:19:59;;;;;;;0.47;0.47;;;;;;;13.10;72.96;97518.38;5052687;28;20212;-81
2023/03/25 11:22:29;;;;;;;1.10;0.40;;;;;;;13.21;71.42;97509.44;5052906;28;20298;-80
2023/03/25 11:25:03;;;;;;;0.40;0.40;;;;;;;13.02;67.97;97480.22;5052401;28;20365;-82
2023/03/25 11:27:30;;;;;;;0.63;0.50;;;;;;;13.10;70.26;97494.50;5052600;28;20215;-82
2023/03/25 11:30:00;;;;;;;0.70;0.40;;;;;;;13.20;69.67;97505.94;5052389;28;20257;-83
2023/03/25 11:32:33;;;;;;;0.87;0.70;;;;;;;12.96;65.88;97470.16;5052438;28;20299;-82
2023/03/25 11:35:02;;;;;;;1.70;0.50;;;;;;;12.80;69.99;97494.53;5076848;22;20243;-80
2023/03/25 11:37:30;;;;;;;1.50;0.40;;;;;;;12.70;67.36;97474.22;5071765;28;20211;-77
2023/03/25 11:40:13;;;;;;;2.17;0.70;;;;;;;12.59;67.44;97466.41;5071113;28;20592;-76
2023/03/25 11:42:44;;;;;;;0.70;0.50;;;;;;;12.77;67.94;97481.50;5070614;28;20860;-78
2023/03/25 11:45:19;;;;;;;0.57;0.50;;;;;;;12.94;66.59;97461.44;5070103;28;20275;-77